Bessemer, Michigan
Current Conditions -  °F | °C
As of 4:55 PM on Friday 28 Nov 2014 (Local Time) from KIWD Reporting Station
Broken Clouds Broken Clouds  
Wind Chill: -9°   Ceiling: 10000
Heat Index: -9°   Visibility: 10mi
Dew Point: -13°   Wind: 3mph
Humidity: 73%   Direction: 110°ESE
Pressure: 29.85"   Gusts: NA
Location:  46.48°N, 90.05°W
Report Text: KIWD 282255Z AUTO 11003KT 10SM BKN100 M09/M13 A2985 RMK AO1
Loading
Personal Weather Stations






























Interactive Weather Map New forecast layout! Learn more

10-Day Weather Forecast

Advertisements
Track Severe Weather on mobile